sensor_id;sensor_type;location;lat;lon;timestamp;temperature;humidity
44509;DHT22;30214;52.246;14.408;2023-06-14T00:01:58;12.10;99.90
44509;DHT22;30214;52.246;14.408;2023-06-14T00:04:27;12.10;99.90
44509;DHT22;30214;52.246;14.408;2023-06-14T00:06:55;12.00;99.90
44509;DHT22;30214;52.246;14.408;2023-06-14T00:09:22;12.00;99.90
44509;DHT22;30214;52.246;14.408;2023-06-14T00:11:49;11.90;99.90
44509;DHT22;30214;52.246;14.408;2023-06-14T00:14:16;11.90;99.90
44509;DHT22;30214;52.246;14.408;2023-06-14T00:16:46;11.90;99.90
44509;DHT22;30214;52.246;14.408;2023-06-14T00:19:13;11.80;99.90
44509;DHT22;30214;52.246;14.408;2023-06-14T00:21:42;11.80;99.90
44509;DHT22;30214;52.246;14.408;2023-06-14T00:24:09;11.80;99.90
44509;DHT22;30214;52.246;14.408;2023-06-14T00:26:36;11.80;99.90
44509;DHT22;30214;52.246;14.408;2023-06-14T00:29:03;11.90;99.90
44509;DHT22;30214;52.246;14.408;2023-06-14T00:31:30;11.70;99.90
44509;DHT22;30214;52.246;14.408;2023-06-14T00:33:57;11.80;99.90
44509;DHT22;30214;52.246;14.408;2023-06-14T00:36:24;11.70;99.90
44509;DHT22;30214;52.246;14.408;2023-06-14T00:38:52;11.80;99.90
44509;DHT22;30214;52.246;14.408;2023-06-14T00:41:19;11.70;99.90
44509;DHT22;30214;52.246;14.408;2023-06-14T00:43:46;11.70;99.90
44509;DHT22;30214;52.246;14.408;2023-06-14T00:46:14;11.70;99.90
44509;DHT22;30214;52.246;14.408;2023-06-14T00:48:42;11.70;99.90
44509;DHT22;30214;52.246;14.408;2023-06-14T00:51:09;11.70;99.90
44509;DHT22;30214;52.246;14.408;2023-06-14T00:53:37;11.70;99.90
44509;DHT22;30214;52.246;14.408;2023-06-14T00:56:06;11.70;99.90
44509;DHT22;30214;52.246;14.408;2023-06-14T00:58:33;11.80;99.90
44509;DHT22;30214;52.246;14.408;2023-06-14T01:01:00;11.80;99.90
44509;DHT22;30214;52.246;14.408;2023-06-14T01:03:28;11.60;99.90
44509;DHT22;30214;52.246;14.408;2023-06-14T01:06:05;11.60;99.90
44509;DHT22;30214;52.246;14.408;2023-06-14T01:08:48;11.50;99.90
44509;DHT22;30214;52.246;14.408;2023-06-14T01:11:26;11.50;99.90
44509;DHT22;30214;52.246;14.408;2023-06-14T01:13:55;11.40;99.90
44509;DHT22;30214;52.246;14.408;2023-06-14T01:16:22;11.40;99.90
44509;DHT22;30214;52.246;14.408;2023-06-14T01:18:52;11.30;99.90
44509;DHT22;30214;52.246;14.408;2023-06-14T01:21:22;11.20;99.90
44509;DHT22;30214;52.246;14.408;2023-06-14T01:23:50;11.30;99.90
44509;DHT22;30214;52.246;14.408;2023-06-14T01:26:19;11.30;99.90
44509;DHT22;30214;52.246;14.408;2023-06-14T01:28:47;11.30;99.90
44509;DHT22;30214;52.246;14.408;2023-06-14T01:31:18;11.30;99.90
44509;DHT22;30214;52.246;14.408;2023-06-14T01:33:48;11.30;99.90
44509;DHT22;30214;52.246;14.408;2023-06-14T01:36:17;11.30;99.90
44509;DHT22;30214;52.246;14.408;2023-06-14T01:38:46;11.30;99.90
44509;DHT22;30214;52.246;14.408;2023-06-14T01:41:15;11.30;99.90
44509;DHT22;30214;52.246;14.408;2023-06-14T01:43:43;11.20;99.90
44509;DHT22;30214;52.246;14.408;2023-06-14T01:46:10;11.20;99.90
44509;DHT22;30214;52.246;14.408;2023-06-14T01:48:37;11.20;99.90
44509;DHT22;30214;52.246;14.408;2023-06-14T01:51:04;11.10;99.90
44509;DHT22;30214;52.246;14.408;2023-06-14T01:53:31;11.20;99.90
44509;DHT22;30214;52.246;14.408;2023-06-14T01:55:58;11.10;99.90
44509;DHT22;30214;52.246;14.408;2023-06-14T01:58:27;11.10;99.90
44509;DHT22;30214;52.246;14.408;2023-06-14T02:00:54;11.10;99.90
44509;DHT22;30214;52.246;14.408;2023-06-14T02:03:22;11.10;99.90
44509;DHT22;30214;52.246;14.408;2023-06-14T02:05:52;11.00;99.90
44509;DHT22;30214;52.246;14.408;2023-06-14T02:08:20;11.00;99.90
44509;DHT22;30214;52.246;14.408;2023-06-14T02:10:46;11.00;99.90
44509;DHT22;30214;52.246;14.408;2023-06-14T02:13:13;11.00;99.90
44509;DHT22;30214;52.246;14.408;2023-06-14T02:15:41;11.00;99.90
44509;DHT22;30214;52.246;14.408;2023-06-14T02:18:09;11.00;99.90
44509;DHT22;30214;52.246;14.408;2023-06-14T02:20:37;11.00;99.90
44509;DHT22;30214;52.246;14.408;2023-06-14T02:23:04;11.00;99.90
44509;DHT22;30214;52.246;14.408;2023-06-14T02:25:31;11.00;99.90
44509;DHT22;30214;52.246;14.408;2023-06-14T02:27:58;11.00;99.90
44509;DHT22;30214;52.246;14.408;2023-06-14T02:30:25;10.90;99.90
44509;DHT22;30214;52.246;14.408;2023-06-14T02:32:57;10.90;99.90
44509;DHT22;30214;52.246;14.408;2023-06-14T02:35:24;10.90;99.90
44509;DHT22;30214;52.246;14.408;2023-06-14T02:37:52;10.90;99.90
44509;DHT22;30214;52.246;14.408;2023-06-14T02:40:22;10.90;99.90
44509;DHT22;30214;52.246;14.408;2023-06-14T02:42:49;10.90;99.90
44509;DHT22;30214;52.246;14.408;2023-06-14T02:45:16;10.90;99.90
44509;DHT22;30214;52.246;14.408;2023-06-14T02:47:43;10.80;99.90
44509;DHT22;30214;52.246;14.408;2023-06-14T02:50:13;10.80;99.90
44509;DHT22;30214;52.246;14.408;2023-06-14T02:52:41;10.80;99.90
44509;DHT22;30214;52.246;14.408;2023-06-14T02:55:10;10.80;99.90
44509;DHT22;30214;52.246;14.408;2023-06-14T02:57:37;10.80;99.90
44509;DHT22;30214;52.246;14.408;2023-06-14T03:00:06;10.90;99.90
44509;DHT22;30214;52.246;14.408;2023-06-14T03:02:35;10.90;99.90
44509;DHT22;30214;52.246;14.408;2023-06-14T03:05:02;10.90;99.90
44509;DHT22;30214;52.246;14.408;2023-06-14T03:07:32;11.00;99.90
44509;DHT22;30214;52.246;14.408;2023-06-14T03:10:01;10.90;99.90
44509;DHT22;30214;52.246;14.408;2023-06-14T03:12:29;11.00;99.90
44509;DHT22;30214;52.246;14.408;2023-06-14T03:14:57;11.00;99.90
44509;DHT22;30214;52.246;14.408;2023-06-14T03:17:28;11.10;99.90
44509;DHT22;30214;52.246;14.408;2023-06-14T03:19:59;11.10;99.90
44509;DHT22;30214;52.246;14.408;2023-06-14T03:22:26;11.20;99.90
44509;DHT22;30214;52.246;14.408;2023-06-14T03:24:55;11.20;99.90
44509;DHT22;30214;52.246;14.408;2023-06-14T03:27:22;11.20;99.90
44509;DHT22;30214;52.246;14.408;2023-06-14T03:29:49;11.20;99.90
44509;DHT22;30214;52.246;14.408;2023-06-14T03:32:16;11.30;99.90
44509;DHT22;30214;52.246;14.408;2023-06-14T03:34:44;11.40;99.90
44509;DHT22;30214;52.246;14.408;2023-06-14T03:37:16;11.50;99.90
44509;DHT22;30214;52.246;14.408;2023-06-14T03:39:44;11.60;99.90
44509;DHT22;30214;52.246;14.408;2023-06-14T03:42:16;11.60;99.90
44509;DHT22;30214;52.246;14.408;2023-06-14T03:44:44;11.70;99.90
44509;DHT22;30214;52.246;14.408;2023-06-14T03:47:12;11.70;99.90
44509;DHT22;30214;52.246;14.408;2023-06-14T03:49:39;11.70;99.90
44509;DHT22;30214;52.246;14.408;2023-06-14T03:52:08;11.60;99.90
44509;DHT22;30214;52.246;14.408;2023-06-14T03:54:38;11.60;99.90
44509;DHT22;30214;52.246;14.408;2023-06-14T03:57:06;11.70;99.90
44509;DHT22;30214;52.246;14.408;2023-06-14T03:59:35;11.70;99.90
44509;DHT22;30214;52.246;14.408;2023-06-14T04:02:02;12.00;99.90
44509;DHT22;30214;52.246;14.408;2023-06-14T04:04:29;12.00;99.90
44509;DHT22;30214;52.246;14.408;2023-06-14T04:06:58;11.90;99.90
44509;DHT22;30214;52.246;14.408;2023-06-14T04:09:26;12.00;99.90
44509;DHT22;30214;52.246;14.408;2023-06-14T04:11:53;12.00;99.90
44509;DHT22;30214;52.246;14.408;2023-06-14T04:14:20;12.10;99.90
44509;DHT22;30214;52.246;14.408;2023-06-14T04:16:49;12.20;99.90
44509;DHT22;30214;52.246;14.408;2023-06-14T04:19:18;12.20;99.90
44509;DHT22;30214;52.246;14.408;2023-06-14T04:21:45;12.20;99.90
44509;DHT22;30214;52.246;14.408;2023-06-14T04:24:13;12.20;99.90
44509;DHT22;30214;52.246;14.408;2023-06-14T04:26:42;12.20;99.90
44509;DHT22;30214;52.246;14.408;2023-06-14T04:29:10;12.30;99.90
44509;DHT22;30214;52.246;14.408;2023-06-14T04:31:41;12.30;99.90
44509;DHT22;30214;52.246;14.408;2023-06-14T04:34:11;12.40;99.90
44509;DHT22;30214;52.246;14.408;2023-06-14T04:36:42;12.50;99.90
44509;DHT22;30214;52.246;14.408;2023-06-14T04:39:14;12.60;99.90
44509;DHT22;30214;52.246;14.408;2023-06-14T04:41:41;12.60;99.90
44509;DHT22;30214;52.246;14.408;2023-06-14T04:44:08;12.60;99.90
44509;DHT22;30214;52.246;14.408;2023-06-14T04:46:40;12.60;99.90
44509;DHT22;30214;52.246;14.408;2023-06-14T04:49:16;12.60;99.90
44509;DHT22;30214;52.246;14.408;2023-06-14T04:51:44;12.60;99.90
44509;DHT22;30214;52.246;14.408;2023-06-14T04:54:12;12.70;99.90
44509;DHT22;30214;52.246;14.408;2023-06-14T04:56:41;12.70;99.90
44509;DHT22;30214;52.246;14.408;2023-06-14T04:59:09;12.70;99.90
44509;DHT22;30214;52.246;14.408;2023-06-14T05:01:37;12.90;99.90
44509;DHT22;30214;52.246;14.408;2023-06-14T05:04:04;12.90;99.90
44509;DHT22;30214;52.246;14.408;2023-06-14T05:06:33;12.90;99.90
44509;DHT22;30214;52.246;14.408;2023-06-14T05:09:00;12.90;99.90
44509;DHT22;30214;52.246;14.408;2023-06-14T05:11:28;13.00;99.90
44509;DHT22;30214;52.246;14.408;2023-06-14T05:13:55;13.10;99.90
44509;DHT22;30214;52.246;14.408;2023-06-14T05:16:23;13.20;99.90
44509;DHT22;30214;52.246;14.408;2023-06-14T05:18:51;13.20;99.90
44509;DHT22;30214;52.246;14.408;2023-06-14T05:21:17;13.30;99.90
44509;DHT22;30214;52.246;14.408;2023-06-14T05:23:46;13.40;99.90
44509;DHT22;30214;52.246;14.408;2023-06-14T05:26:13;13.50;99.90
44509;DHT22;30214;52.246;14.408;2023-06-14T05:28:40;13.60;99.90
44509;DHT22;30214;52.246;14.408;2023-06-14T05:31:07;13.80;99.90
44509;DHT22;30214;52.246;14.408;2023-06-14T05:33:34;13.90;99.90
44509;DHT22;30214;52.246;14.408;2023-06-14T05:36:00;14.00;99.90
44509;DHT22;30214;52.246;14.408;2023-06-14T05:38:27;14.00;99.90
44509;DHT22;30214;52.246;14.408;2023-06-14T05:40:56;14.00;99.90
44509;DHT22;30214;52.246;14.408;2023-06-14T05:43:22;14.10;99.90
44509;DHT22;30214;52.246;14.408;2023-06-14T05:45:49;14.30;99.90
44509;DHT22;30214;52.246;14.408;2023-06-14T05:48:16;14.60;99.90
44509;DHT22;30214;52.246;14.408;2023-06-14T05:50:43;15.40;99.90
44509;DHT22;30214;52.246;14.408;2023-06-14T05:53:10;16.40;99.90
44509;DHT22;30214;52.246;14.408;2023-06-14T05:55:38;17.30;99.90
44509;DHT22;30214;52.246;14.408;2023-06-14T05:58:08;18.00;99.90
44509;DHT22;30214;52.246;14.408;2023-06-14T06:00:37;18.20;99.90
44509;DHT22;30214;52.246;14.408;2023-06-14T06:03:04;17.50;99.90
44509;DHT22;30214;52.246;14.408;2023-06-14T06:05:33;16.40;99.90
44509;DHT22;30214;52.246;14.408;2023-06-14T06:08:00;15.90;99.90
44509;DHT22;30214;52.246;14.408;2023-06-14T06:10:27;15.70;99.90
44509;DHT22;30214;52.246;14.408;2023-06-14T06:12:54;16.10;99.90
44509;DHT22;30214;52.246;14.408;2023-06-14T06:15:22;16.70;99.90
44509;DHT22;30214;52.246;14.408;2023-06-14T06:17:49;17.20;99.90
44509;DHT22;30214;52.246;14.408;2023-06-14T06:20:16;17.50;99.90
44509;DHT22;30214;52.246;14.408;2023-06-14T06:22:43;17.40;99.90
44509;DHT22;30214;52.246;14.408;2023-06-14T06:25:10;17.20;99.90
44509;DHT22;30214;52.246;14.408;2023-06-14T06:27:37;17.00;99.90
44509;DHT22;30214;52.246;14.408;2023-06-14T06:30:07;16.70;99.90
44509;DHT22;30214;52.246;14.408;2023-06-14T06:32:35;16.50;99.90
44509;DHT22;30214;52.246;14.408;2023-06-14T06:35:02;16.20;99.90
44509;DHT22;30214;52.246;14.408;2023-06-14T06:37:31;16.10;99.90
44509;DHT22;30214;52.246;14.408;2023-06-14T06:39:58;16.00;99.90
44509;DHT22;30214;52.246;14.408;2023-06-14T06:42:25;15.80;99.90
44509;DHT22;30214;52.246;14.408;2023-06-14T06:44:52;15.80;99.90
44509;DHT22;30214;52.246;14.408;2023-06-14T06:47:19;15.90;99.90
44509;DHT22;30214;52.246;14.408;2023-06-14T06:49:47;16.00;99.90
44509;DHT22;30214;52.246;14.408;2023-06-14T06:52:14;16.00;99.90
44509;DHT22;30214;52.246;14.408;2023-06-14T06:54:41;16.10;99.90
44509;DHT22;30214;52.246;14.408;2023-06-14T06:57:08;16.10;99.90
44509;DHT22;30214;52.246;14.408;2023-06-14T06:59:36;16.20;99.90
44509;DHT22;30214;52.246;14.408;2023-06-14T07:02:04;16.20;99.90
44509;DHT22;30214;52.246;14.408;2023-06-14T07:04:31;16.10;99.90
44509;DHT22;30214;52.246;14.408;2023-06-14T07:06:59;16.10;99.90
44509;DHT22;30214;52.246;14.408;2023-06-14T07:09:26;16.10;99.90
44509;DHT22;30214;52.246;14.408;2023-06-14T07:11:53;16.10;99.90
44509;DHT22;30214;52.246;14.408;2023-06-14T07:14:19;16.10;99.90
44509;DHT22;30214;52.246;14.408;2023-06-14T07:16:48;15.80;99.90
44509;DHT22;30214;52.246;14.408;2023-06-14T07:19:16;15.90;99.90
44509;DHT22;30214;52.246;14.408;2023-06-14T07:21:43;16.00;99.90
44509;DHT22;30214;52.246;14.408;2023-06-14T07:24:11;16.10;99.90
44509;DHT22;30214;52.246;14.408;2023-06-14T07:26:38;16.20;99.90
44509;DHT22;30214;52.246;14.408;2023-06-14T07:29:05;16.40;99.90
44509;DHT22;30214;52.246;14.408;2023-06-14T07:31:31;16.40;99.90
44509;DHT22;30214;52.246;14.408;2023-06-14T07:33:58;16.50;99.90
44509;DHT22;30214;52.246;14.408;2023-06-14T07:36:25;16.60;99.90
44509;DHT22;30214;52.246;14.408;2023-06-14T07:38:52;16.80;99.90
44509;DHT22;30214;52.246;14.408;2023-06-14T07:41:20;17.00;99.90
44509;DHT22;30214;52.246;14.408;2023-06-14T07:43:47;17.20;99.90
44509;DHT22;30214;52.246;14.408;2023-06-14T07:46:14;17.30;99.90
44509;DHT22;30214;52.246;14.408;2023-06-14T07:48:41;17.50;99.90
44509;DHT22;30214;52.246;14.408;2023-06-14T07:51:08;17.40;99.90
44509;DHT22;30214;52.246;14.408;2023-06-14T07:53:35;17.40;99.90
44509;DHT22;30214;52.246;14.408;2023-06-14T07:56:02;17.60;99.90
44509;DHT22;30214;52.246;14.408;2023-06-14T07:58:30;18.20;99.90
44509;DHT22;30214;52.246;14.408;2023-06-14T08:00:57;19.10;99.90
44509;DHT22;30214;52.246;14.408;2023-06-14T08:03:25;19.60;99.90
44509;DHT22;30214;52.246;14.408;2023-06-14T08:05:52;19.80;99.90
44509;DHT22;30214;52.246;14.408;2023-06-14T08:08:19;19.70;99.60
44509;DHT22;30214;52.246;14.408;2023-06-14T08:10:46;19.70;99.40
44509;DHT22;30214;52.246;14.408;2023-06-14T08:13:13;19.10;99.90
44509;DHT22;30214;52.246;14.408;2023-06-14T08:15:41;19.20;99.90
44509;DHT22;30214;52.246;14.408;2023-06-14T08:18:08;19.30;99.90
44509;DHT22;30214;52.246;14.408;2023-06-14T08:20:34;19.30;99.90
44509;DHT22;30214;52.246;14.408;2023-06-14T08:23:02;19.30;99.90
44509;DHT22;30214;52.246;14.408;2023-06-14T08:25:30;19.30;99.90
44509;DHT22;30214;52.246;14.408;2023-06-14T08:27:56;19.00;99.90
44509;DHT22;30214;52.246;14.408;2023-06-14T08:30:23;18.70;99.90
44509;DHT22;30214;52.246;14.408;2023-06-14T08:32:52;18.90;99.90
44509;DHT22;30214;52.246;14.408;2023-06-14T08:35:21;18.80;99.90
44509;DHT22;30214;52.246;14.408;2023-06-14T08:37:48;18.60;99.90
44509;DHT22;30214;52.246;14.408;2023-06-14T08:40:20;18.80;99.90
44509;DHT22;30214;52.246;14.408;2023-06-14T08:42:51;18.40;99.90
44509;DHT22;30214;52.246;14.408;2023-06-14T08:45:18;18.40;99.90
44509;DHT22;30214;52.246;14.408;2023-06-14T08:47:46;18.50;99.90
44509;DHT22;30214;52.246;14.408;2023-06-14T08:50:20;18.70;99.90
44509;DHT22;30214;52.246;14.408;2023-06-14T08:52:48;18.60;99.90
44509;DHT22;30214;52.246;14.408;2023-06-14T08:55:18;18.80;99.90
44509;DHT22;30214;52.246;14.408;2023-06-14T08:57:47;18.70;99.90
44509;DHT22;30214;52.246;14.408;2023-06-14T09:00:15;18.60;99.90
44509;DHT22;30214;52.246;14.408;2023-06-14T09:02:42;18.60;99.90
44509;DHT22;30214;52.246;14.408;2023-06-14T09:05:10;18.50;99.90
44509;DHT22;30214;52.246;14.408;2023-06-14T09:07:40;18.60;99.90
44509;DHT22;30214;52.246;14.408;2023-06-14T09:10:08;18.60;99.90
44509;DHT22;30214;52.246;14.408;2023-06-14T09:12:36;18.50;99.90
44509;DHT22;30214;52.246;14.408;2023-06-14T09:15:04;18.30;99.90
44509;DHT22;30214;52.246;14.408;2023-06-14T09:17:32;18.20;99.90
44509;DHT22;30214;52.246;14.408;2023-06-14T09:20:00;18.40;99.90
44509;DHT22;30214;52.246;14.408;2023-06-14T09:22:30;18.40;98.60
44509;DHT22;30214;52.246;14.408;2023-06-14T09:24:59;18.20;99.90
44509;DHT22;30214;52.246;14.408;2023-06-14T09:27:26;18.30;99.90
44509;DHT22;30214;52.246;14.408;2023-06-14T09:29:53;18.40;99.50
44509;DHT22;30214;52.246;14.408;2023-06-14T09:32:20;18.40;99.40
44509;DHT22;30214;52.246;14.408;2023-06-14T09:34:47;18.40;99.60
44509;DHT22;30214;52.246;14.408;2023-06-14T09:37:27;18.30;99.50
44509;DHT22;30214;52.246;14.408;2023-06-14T09:39:55;18.40;99.30
44509;DHT22;30214;52.246;14.408;2023-06-14T09:42:23;18.20;98.90
44509;DHT22;30214;52.246;14.408;2023-06-14T09:44:53;18.20;99.90
44509;DHT22;30214;52.246;14.408;2023-06-14T09:47:23;18.20;99.90
44509;DHT22;30214;52.246;14.408;2023-06-14T09:49:51;18.40;99.90
44509;DHT22;30214;52.246;14.408;2023-06-14T09:52:21;18.30;99.90
44509;DHT22;30214;52.246;14.408;2023-06-14T09:54:48;18.20;99.90
44509;DHT22;30214;52.246;14.408;2023-06-14T09:57:16;18.30;99.50
44509;DHT22;30214;52.246;14.408;2023-06-14T09:59:48;18.30;99.20
44509;DHT22;30214;52.246;14.408;2023-06-14T10:02:22;18.30;99.90
44509;DHT22;30214;52.246;14.408;2023-06-14T10:04:56;18.30;99.90
44509;DHT22;30214;52.246;14.408;2023-06-14T10:07:26;18.40;99.60
44509;DHT22;30214;52.246;14.408;2023-06-14T10:09:57;18.50;99.90
44509;DHT22;30214;52.246;14.408;2023-06-14T10:12:25;18.70;99.80
44509;DHT22;30214;52.246;14.408;2023-06-14T10:14:54;19.00;99.90
44509;DHT22;30214;52.246;14.408;2023-06-14T10:17:27;19.30;98.70
44509;DHT22;30214;52.246;14.408;2023-06-14T10:20:06;19.20;99.10
44509;DHT22;30214;52.246;14.408;2023-06-14T10:22:43;18.90;97.40
44509;DHT22;30214;52.246;14.408;2023-06-14T10:25:14;18.70;98.40
44509;DHT22;30214;52.246;14.408;2023-06-14T10:27:52;19.10;99.90
44509;DHT22;30214;52.246;14.408;2023-06-14T10:30:25;19.30;98.50
44509;DHT22;30214;52.246;14.408;2023-06-14T10:33:04;19.60;99.20
44509;DHT22;30214;52.246;14.408;2023-06-14T10:35:32;20.10;97.80
44509;DHT22;30214;52.246;14.408;2023-06-14T10:38:07;20.10;96.60
44509;DHT22;30214;52.246;14.408;2023-06-14T10:40:34;20.00;96.80
44509;DHT22;30214;52.246;14.408;2023-06-14T10:43:21;20.10;95.90
44509;DHT22;30214;52.246;14.408;2023-06-14T10:46:15;20.40;96.00
44509;DHT22;30214;52.246;14.408;2023-06-14T10:48:42;20.90;95.60
44509;DHT22;30214;52.246;14.408;2023-06-14T10:51:16;20.90;94.10
44509;DHT22;30214;52.246;14.408;2023-06-14T10:53:46;20.80;94.10
44509;DHT22;30214;52.246;14.408;2023-06-14T10:56:23;20.60;92.90
44509;DHT22;30214;52.246;14.408;2023-06-14T10:58:52;20.70;93.50
44509;DHT22;30214;52.246;14.408;2023-06-14T11:01:35;21.00;93.20
44509;DHT22;30214;52.246;14.408;2023-06-14T11:04:07;21.50;93.70
44509;DHT22;30214;52.246;14.408;2023-06-14T11:06:46;21.70;91.70
44509;DHT22;30214;52.246;14.408;2023-06-14T11:09:44;21.60;92.50
44509;DHT22;30214;52.246;14.408;2023-06-14T11:12:13;21.70;91.70
44509;DHT22;30214;52.246;14.408;2023-06-14T11:14:41;21.90;92.60
44509;DHT22;30214;52.246;14.408;2023-06-14T11:17:12;21.90;89.40
44509;DHT22;30214;52.246;14.408;2023-06-14T11:19:39;21.90;91.10
44509;DHT22;30214;52.246;14.408;2023-06-14T11:22:06;22.00;90.20
44509;DHT22;30214;52.246;14.408;2023-06-14T11:24:33;21.70;91.90
44509;DHT22;30214;52.246;14.408;2023-06-14T11:27:01;21.80;90.20
44509;DHT22;30214;52.246;14.408;2023-06-14T11:29:30;21.80;90.80
44509;DHT22;30214;52.246;14.408;2023-06-14T11:31:58;21.50;90.20
44509;DHT22;30214;52.246;14.408;2023-06-14T11:34:27;21.20;91.00
44509;DHT22;30214;52.246;14.408;2023-06-14T11:36:54;20.90;91.40
44509;DHT22;30214;52.246;14.408;2023-06-14T11:39:24;21.10;91.80
44509;DHT22;30214;52.246;14.408;2023-06-14T11:41:52;21.40;92.10
44509;DHT22;30214;52.246;14.408;2023-06-14T11:44:21;21.40;90.80
44509;DHT22;30214;52.246;14.408;2023-06-14T11:46:48;21.00;91.20
44509;DHT22;30214;52.246;14.408;2023-06-14T11:49:17;20.80;91.10
44509;DHT22;30214;52.246;14.408;2023-06-14T11:51:46;20.70;91.70
44509;DHT22;30214;52.246;14.408;2023-06-14T11:54:15;21.00;92.50
44509;DHT22;30214;52.246;14.408;2023-06-14T11:56:42;21.20;91.50
44509;DHT22;30214;52.246;14.408;2023-06-14T11:59:09;21.40;90.30
44509;DHT22;30214;52.246;14.408;2023-06-14T12:01:37;21.20;91.10
44509;DHT22;30214;52.246;14.408;2023-06-14T12:04:04;21.10;90.90
44509;DHT22;30214;52.246;14.408;2023-06-14T12:06:32;21.30;89.70
44509;DHT22;30214;52.246;14.408;2023-06-14T12:09:05;21.40;89.50
44509;DHT22;30214;52.246;14.408;2023-06-14T12:11:34;21.70;88.00
44509;DHT22;30214;52.246;14.408;2023-06-14T12:14:02;21.80;90.20
44509;DHT22;30214;52.246;14.408;2023-06-14T12:16:31;22.10;88.00
44509;DHT22;30214;52.246;14.408;2023-06-14T12:19:01;21.90;88.40
44509;DHT22;30214;52.246;14.408;2023-06-14T12:21:28;22.00;89.10
44509;DHT22;30214;52.246;14.408;2023-06-14T12:23:55;22.10;90.00
44509;DHT22;30214;52.246;14.408;2023-06-14T12:26:24;22.30;88.30
44509;DHT22;30214;52.246;14.408;2023-06-14T12:28:53;22.30;86.70
44509;DHT22;30214;52.246;14.408;2023-06-14T12:31:20;22.20;84.60
44509;DHT22;30214;52.246;14.408;2023-06-14T12:33:47;22.20;86.40
44509;DHT22;30214;52.246;14.408;2023-06-14T12:36:15;22.00;81.60
44509;DHT22;30214;52.246;14.408;2023-06-14T12:38:43;21.80;83.80
44509;DHT22;30214;52.246;14.408;2023-06-14T12:41:11;21.70;84.30
44509;DHT22;30214;52.246;14.408;2023-06-14T12:43:41;22.10;87.50
44509;DHT22;30214;52.246;14.408;2023-06-14T12:46:08;22.50;84.30
44509;DHT22;30214;52.246;14.408;2023-06-14T12:48:35;22.40;80.90
44509;DHT22;30214;52.246;14.408;2023-06-14T12:51:02;21.90;82.60
44509;DHT22;30214;52.246;14.408;2023-06-14T12:53:29;21.60;86.70
44509;DHT22;30214;52.246;14.408;2023-06-14T12:55:56;21.30;85.20
44509;DHT22;30214;52.246;14.408;2023-06-14T12:58:22;21.40;85.90
44509;DHT22;30214;52.246;14.408;2023-06-14T13:00:51;21.40;86.10
44509;DHT22;30214;52.246;14.408;2023-06-14T13:03:18;21.80;83.80
44509;DHT22;30214;52.246;14.408;2023-06-14T13:05:45;22.10;84.50
44509;DHT22;30214;52.246;14.408;2023-06-14T13:08:12;22.30;83.00
44509;DHT22;30214;52.246;14.408;2023-06-14T13:10:39;22.40;81.50
44509;DHT22;30214;52.246;14.408;2023-06-14T13:13:06;22.60;79.60
44509;DHT22;30214;52.246;14.408;2023-06-14T13:15:44;22.20;76.70
44509;DHT22;30214;52.246;14.408;2023-06-14T13:18:16;21.70;80.40
44509;DHT22;30214;52.246;14.408;2023-06-14T13:20:46;21.60;81.00
44509;DHT22;30214;52.246;14.408;2023-06-14T13:23:15;21.50;78.20
44509;DHT22;30214;52.246;14.408;2023-06-14T13:25:42;21.50;79.40
44509;DHT22;30214;52.246;14.408;2023-06-14T13:28:09;21.70;80.90
44509;DHT22;30214;52.246;14.408;2023-06-14T13:30:37;21.90;79.70
44509;DHT22;30214;52.246;14.408;2023-06-14T13:33:04;22.20;81.10
44509;DHT22;30214;52.246;14.408;2023-06-14T13:35:32;22.20;77.20
44509;DHT22;30214;52.246;14.408;2023-06-14T13:37:59;22.00;76.80
44509;DHT22;30214;52.246;14.408;2023-06-14T13:40:26;22.10;79.30
44509;DHT22;30214;52.246;14.408;2023-06-14T13:42:53;22.50;74.60
44509;DHT22;30214;52.246;14.408;2023-06-14T13:45:20;22.80;75.70
44509;DHT22;30214;52.246;14.408;2023-06-14T13:47:47;22.90;78.30
44509;DHT22;30214;52.246;14.408;2023-06-14T13:50:14;23.10;74.00
44509;DHT22;30214;52.246;14.408;2023-06-14T13:52:43;22.90;72.40
44509;DHT22;30214;52.246;14.408;2023-06-14T13:55:10;22.70;72.10
44509;DHT22;30214;52.246;14.408;2023-06-14T13:57:37;22.70;74.80
44509;DHT22;30214;52.246;14.408;2023-06-14T14:00:07;22.50;73.60
44509;DHT22;30214;52.246;14.408;2023-06-14T14:02:41;22.40;75.90
44509;DHT22;30214;52.246;14.408;2023-06-14T14:05:09;22.20;76.80
44509;DHT22;30214;52.246;14.408;2023-06-14T14:07:36;22.10;76.80
44509;DHT22;30214;52.246;14.408;2023-06-14T14:10:07;22.10;74.90
44509;DHT22;30214;52.246;14.408;2023-06-14T14:12:34;22.00;78.00
44509;DHT22;30214;52.246;14.408;2023-06-14T14:15:01;21.90;75.90
44509;DHT22;30214;52.246;14.408;2023-06-14T14:17:28;21.80;75.30
44509;DHT22;30214;52.246;14.408;2023-06-14T14:19:56;22.00;76.70
44509;DHT22;30214;52.246;14.408;2023-06-14T14:22:23;22.40;77.60
44509;DHT22;30214;52.246;14.408;2023-06-14T14:24:50;22.80;79.00
44509;DHT22;30214;52.246;14.408;2023-06-14T14:27:18;22.90;77.20
44509;DHT22;30214;52.246;14.408;2023-06-14T14:29:45;22.80;75.10
44509;DHT22;30214;52.246;14.408;2023-06-14T14:32:12;22.90;78.30
44509;DHT22;30214;52.246;14.408;2023-06-14T14:34:40;23.20;74.40
44509;DHT22;30214;52.246;14.408;2023-06-14T14:37:07;23.30;73.80
44509;DHT22;30214;52.246;14.408;2023-06-14T14:39:36;23.20;74.60
44509;DHT22;30214;52.246;14.408;2023-06-14T14:42:04;22.90;72.70
44509;DHT22;30214;52.246;14.408;2023-06-14T14:44:32;22.60;76.80
44509;DHT22;30214;52.246;14.408;2023-06-14T14:46:59;22.40;73.70
44509;DHT22;30214;52.246;14.408;2023-06-14T14:49:26;22.50;75.90
44509;DHT22;30214;52.246;14.408;2023-06-14T14:51:53;22.70;74.00
44509;DHT22;30214;52.246;14.408;2023-06-14T14:54:22;22.50;75.90
44509;DHT22;30214;52.246;14.408;2023-06-14T14:56:49;22.30;76.90
44509;DHT22;30214;52.246;14.408;2023-06-14T14:59:16;22.20;75.50
44509;DHT22;30214;52.246;14.408;2023-06-14T15:01:45;22.30;76.80
44509;DHT22;30214;52.246;14.408;2023-06-14T15:04:12;22.50;75.80
44509;DHT22;30214;52.246;14.408;2023-06-14T15:06:39;22.40;74.90
44509;DHT22;30214;52.246;14.408;2023-06-14T15:09:07;22.40;73.70
44509;DHT22;30214;52.246;14.408;2023-06-14T15:11:34;22.50;74.80
44509;DHT22;30214;52.246;14.408;2023-06-14T15:14:01;22.70;73.30
44509;DHT22;30214;52.246;14.408;2023-06-14T15:16:28;22.70;72.90
44509;DHT22;30214;52.246;14.408;2023-06-14T15:18:57;22.60;72.60
44509;DHT22;30214;52.246;14.408;2023-06-14T15:21:24;22.70;73.90
44509;DHT22;30214;52.246;14.408;2023-06-14T15:23:51;22.50;69.40